sensor_id;sensor_type;location;lat;lon;timestamp;P1;durP1;ratioP1;P2;durP2;ratioP2
6757;SDS011;3416;53.074;8.822;2022-08-02T00:01:02;9.50;;;3.67;;
6757;SDS011;3416;53.074;8.822;2022-08-02T00:03:30;7.18;;;3.60;;
6757;SDS011;3416;53.074;8.822;2022-08-02T00:05:56;6.38;;;4.65;;
6757;SDS011;3416;53.074;8.822;2022-08-02T00:08:23;10.55;;;4.22;;
6757;SDS011;3416;53.074;8.822;2022-08-02T00:10:50;7.03;;;3.80;;
6757;SDS011;3416;53.074;8.822;2022-08-02T00:13:19;7.97;;;5.05;;
6757;SDS011;3416;53.074;8.822;2022-08-02T00:15:45;7.78;;;6.55;;
6757;SDS011;3416;53.074;8.822;2022-08-02T00:18:12;9.57;;;4.70;;
6757;SDS011;3416;53.074;8.822;2022-08-02T00:20:39;6.75;;;4.90;;
6757;SDS011;3416;53.074;8.822;2022-08-02T00:23:06;9.05;;;4.53;;
6757;SDS011;3416;53.074;8.822;2022-08-02T00:25:33;10.82;;;4.40;;
6757;SDS011;3416;53.074;8.822;2022-08-02T00:28:00;12.32;;;5.18;;
6757;SDS011;3416;53.074;8.822;2022-08-02T00:30:28;9.73;;;4.82;;
6757;SDS011;3416;53.074;8.822;2022-08-02T00:32:55;9.45;;;5.53;;
6757;SDS011;3416;53.074;8.822;2022-08-02T00:35:24;15.23;;;5.32;;
6757;SDS011;3416;53.074;8.822;2022-08-02T00:37:51;10.10;;;4.22;;
6757;SDS011;3416;53.074;8.822;2022-08-02T00:40:20;19.95;;;5.13;;
6757;SDS011;3416;53.074;8.822;2022-08-02T00:42:58;8.98;;;4.95;;
6757;SDS011;3416;53.074;8.822;2022-08-02T00:45:26;11.48;;;5.30;;
6757;SDS011;3416;53.074;8.822;2022-08-02T00:47:54;7.25;;;5.50;;
6757;SDS011;3416;53.074;8.822;2022-08-02T00:50:21;9.05;;;5.00;;
6757;SDS011;3416;53.074;8.822;2022-08-02T00:52:49;7.25;;;4.80;;
6757;SDS011;3416;53.074;8.822;2022-08-02T00:55:16;17.42;;;5.22;;
6757;SDS011;3416;53.074;8.822;2022-08-02T00:57:43;8.25;;;4.78;;
6757;SDS011;3416;53.074;8.822;2022-08-02T01:00:10;10.10;;;4.07;;
6757;SDS011;3416;53.074;8.822;2022-08-02T01:02:37;6.47;;;4.72;;
6757;SDS011;3416;53.074;8.822;2022-08-02T01:05:06;13.90;;;4.57;;
6757;SDS011;3416;53.074;8.822;2022-08-02T01:07:34;8.85;;;5.35;;
6757;SDS011;3416;53.074;8.822;2022-08-02T01:10:01;12.77;;;4.75;;
6757;SDS011;3416;53.074;8.822;2022-08-02T01:12:28;5.13;;;3.83;;
6757;SDS011;3416;53.074;8.822;2022-08-02T01:14:56;8.25;;;5.65;;
6757;SDS011;3416;53.074;8.822;2022-08-02T01:17:28;9.23;;;5.50;;
6757;SDS011;3416;53.074;8.822;2022-08-02T01:20:04;12.40;;;4.90;;
6757;SDS011;3416;53.074;8.822;2022-08-02T01:22:47;9.13;;;4.78;;
6757;SDS011;3416;53.074;8.822;2022-08-02T01:25:32;8.95;;;5.65;;
6757;SDS011;3416;53.074;8.822;2022-08-02T01:31:07;6.47;;;5.05;;
6757;SDS011;3416;53.074;8.822;2022-08-02T01:33:40;8.93;;;5.93;;
6757;SDS011;3416;53.074;8.822;2022-08-02T01:36:11;9.63;;;6.07;;
6757;SDS011;3416;53.074;8.822;2022-08-02T01:38:42;7.55;;;5.85;;
6757;SDS011;3416;53.074;8.822;2022-08-02T01:41:14;7.97;;;5.70;;
6757;SDS011;3416;53.074;8.822;2022-08-02T01:43:48;12.63;;;4.95;;
6757;SDS011;3416;53.074;8.822;2022-08-02T01:46:18;7.43;;;5.05;;
6757;SDS011;3416;53.074;8.822;2022-08-02T01:48:46;11.73;;;6.18;;
6757;SDS011;3416;53.074;8.822;2022-08-02T01:51:16;7.40;;;5.97;;
6757;SDS011;3416;53.074;8.822;2022-08-02T01:54:05;11.18;;;5.95;;
6757;SDS011;3416;53.074;8.822;2022-08-02T01:56:34;7.47;;;4.72;;
6757;SDS011;3416;53.074;8.822;2022-08-02T01:59:04;8.48;;;4.97;;
6757;SDS011;3416;53.074;8.822;2022-08-02T02:01:33;7.93;;;5.20;;
6757;SDS011;3416;53.074;8.822;2022-08-02T02:04:03;11.85;;;5.78;;
6757;SDS011;3416;53.074;8.822;2022-08-02T02:06:33;11.38;;;6.35;;
6757;SDS011;3416;53.074;8.822;2022-08-02T02:09:01;10.68;;;6.35;;
6757;SDS011;3416;53.074;8.822;2022-08-02T02:11:29;12.15;;;7.78;;
6757;SDS011;3416;53.074;8.822;2022-08-02T02:13:57;10.48;;;5.63;;
6757;SDS011;3416;53.074;8.822;2022-08-02T02:16:28;9.18;;;5.15;;
6757;SDS011;3416;53.074;8.822;2022-08-02T02:18:57;8.70;;;5.18;;
6757;SDS011;3416;53.074;8.822;2022-08-02T02:21:26;13.93;;;5.97;;
6757;SDS011;3416;53.074;8.822;2022-08-02T02:23:54;12.55;;;6.60;;
6757;SDS011;3416;53.074;8.822;2022-08-02T02:26:20;6.95;;;6.00;;
6757;SDS011;3416;53.074;8.822;2022-08-02T02:28:49;11.45;;;6.80;;
6757;SDS011;3416;53.074;8.822;2022-08-02T02:31:19;9.77;;;5.97;;
6757;SDS011;3416;53.074;8.822;2022-08-02T02:33:49;14.52;;;7.07;;
6757;SDS011;3416;53.074;8.822;2022-08-02T02:36:22;12.38;;;6.32;;
6757;SDS011;3416;53.074;8.822;2022-08-02T02:38:50;12.93;;;5.38;;
6757;SDS011;3416;53.074;8.822;2022-08-02T02:41:18;10.88;;;5.90;;
6757;SDS011;3416;53.074;8.822;2022-08-02T02:43:47;9.93;;;6.10;;
6757;SDS011;3416;53.074;8.822;2022-08-02T02:46:15;11.18;;;6.10;;
6757;SDS011;3416;53.074;8.822;2022-08-02T02:48:45;17.02;;;7.28;;
6757;SDS011;3416;53.074;8.822;2022-08-02T02:51:14;11.40;;;7.38;;
6757;SDS011;3416;53.074;8.822;2022-08-02T02:53:42;15.23;;;6.70;;
6757;SDS011;3416;53.074;8.822;2022-08-02T02:56:11;14.82;;;7.85;;
6757;SDS011;3416;53.074;8.822;2022-08-02T02:58:40;10.93;;;7.20;;
6757;SDS011;3416;53.074;8.822;2022-08-02T03:01:08;12.95;;;7.07;;
6757;SDS011;3416;53.074;8.822;2022-08-02T03:03:55;10.23;;;6.85;;
6757;SDS011;3416;53.074;8.822;2022-08-02T03:06:26;15.70;;;6.57;;
6757;SDS011;3416;53.074;8.822;2022-08-02T03:08:53;12.65;;;6.97;;
6757;SDS011;3416;53.074;8.822;2022-08-02T03:11:20;6.95;;;5.43;;
6757;SDS011;3416;53.074;8.822;2022-08-02T03:13:48;9.90;;;6.82;;
6757;SDS011;3416;53.074;8.822;2022-08-02T03:16:17;10.32;;;5.88;;
6757;SDS011;3416;53.074;8.822;2022-08-02T03:18:44;11.52;;;6.13;;
6757;SDS011;3416;53.074;8.822;2022-08-02T03:21:12;12.00;;;7.88;;
6757;SDS011;3416;53.074;8.822;2022-08-02T03:23:40;18.60;;;8.52;;
6757;SDS011;3416;53.074;8.822;2022-08-02T03:26:08;11.85;;;7.93;;
6757;SDS011;3416;53.074;8.822;2022-08-02T03:28:35;11.63;;;6.47;;
6757;SDS011;3416;53.074;8.822;2022-08-02T03:31:02;14.45;;;7.30;;
6757;SDS011;3416;53.074;8.822;2022-08-02T03:33:30;12.65;;;7.07;;
6757;SDS011;3416;53.074;8.822;2022-08-02T03:35:58;10.55;;;5.85;;
6757;SDS011;3416;53.074;8.822;2022-08-02T03:38:28;16.50;;;6.65;;
6757;SDS011;3416;53.074;8.822;2022-08-02T03:40:58;13.52;;;7.35;;
6757;SDS011;3416;53.074;8.822;2022-08-02T03:43:26;8.52;;;6.60;;
6757;SDS011;3416;53.074;8.822;2022-08-02T03:45:54;12.75;;;6.60;;
6757;SDS011;3416;53.074;8.822;2022-08-02T03:48:23;12.48;;;7.90;;
6757;SDS011;3416;53.074;8.822;2022-08-02T03:50:52;11.90;;;8.10;;
6757;SDS011;3416;53.074;8.822;2022-08-02T03:53:20;12.93;;;8.25;;
6757;SDS011;3416;53.074;8.822;2022-08-02T03:55:48;16.17;;;8.68;;
6757;SDS011;3416;53.074;8.822;2022-08-02T03:58:17;12.82;;;8.73;;
6757;SDS011;3416;53.074;8.822;2022-08-02T04:00:45;18.35;;;7.80;;
6757;SDS011;3416;53.074;8.822;2022-08-02T04:03:13;8.80;;;7.07;;
6757;SDS011;3416;53.074;8.822;2022-08-02T04:05:40;18.55;;;9.77;;
6757;SDS011;3416;53.074;8.822;2022-08-02T04:08:07;11.40;;;8.45;;
6757;SDS011;3416;53.074;8.822;2022-08-02T04:10:34;12.30;;;7.85;;
6757;SDS011;3416;53.074;8.822;2022-08-02T04:13:15;16.85;;;7.68;;
6757;SDS011;3416;53.074;8.822;2022-08-02T04:15:45;10.57;;;7.88;;
6757;SDS011;3416;53.074;8.822;2022-08-02T04:18:16;9.50;;;6.00;;
6757;SDS011;3416;53.074;8.822;2022-08-02T04:20:46;17.52;;;7.78;;
6757;SDS011;3416;53.074;8.822;2022-08-02T04:23:15;15.82;;;9.00;;
6757;SDS011;3416;53.074;8.822;2022-08-02T04:25:43;14.63;;;7.32;;
6757;SDS011;3416;53.074;8.822;2022-08-02T04:28:11;10.85;;;7.72;;
6757;SDS011;3416;53.074;8.822;2022-08-02T04:30:42;14.23;;;8.57;;
6757;SDS011;3416;53.074;8.822;2022-08-02T04:33:09;12.27;;;7.10;;
6757;SDS011;3416;53.074;8.822;2022-08-02T04:35:37;12.35;;;9.23;;
6757;SDS011;3416;53.074;8.822;2022-08-02T04:38:04;14.70;;;7.05;;
6757;SDS011;3416;53.074;8.822;2022-08-02T04:40:31;12.88;;;7.15;;
6757;SDS011;3416;53.074;8.822;2022-08-02T04:42:58;8.50;;;6.38;;
6757;SDS011;3416;53.074;8.822;2022-08-02T04:45:25;10.73;;;6.57;;
6757;SDS011;3416;53.074;8.822;2022-08-02T04:47:57;9.70;;;5.43;;
6757;SDS011;3416;53.074;8.822;2022-08-02T04:50:23;6.75;;;4.70;;
6757;SDS011;3416;53.074;8.822;2022-08-02T04:52:50;6.60;;;4.80;;
6757;SDS011;3416;53.074;8.822;2022-08-02T04:55:17;10.60;;;5.10;;
6757;SDS011;3416;53.074;8.822;2022-08-02T04:57:44;6.70;;;5.10;;
6757;SDS011;3416;53.074;8.822;2022-08-02T05:00:20;14.70;;;4.93;;
6757;SDS011;3416;53.074;8.822;2022-08-02T05:02:48;14.47;;;5.93;;
6757;SDS011;3416;53.074;8.822;2022-08-02T05:05:17;12.70;;;5.40;;
6757;SDS011;3416;53.074;8.822;2022-08-02T05:07:44;7.77;;;5.70;;
6757;SDS011;3416;53.074;8.822;2022-08-02T05:10:11;14.20;;;5.80;;
6757;SDS011;3416;53.074;8.822;2022-08-02T05:12:39;14.43;;;7.03;;
6757;SDS011;3416;53.074;8.822;2022-08-02T05:15:07;7.30;;;5.10;;
6757;SDS011;3416;53.074;8.822;2022-08-02T05:17:40;17.07;;;6.50;;
6757;SDS011;3416;53.074;8.822;2022-08-02T05:20:10;15.10;;;8.83;;
6757;SDS011;3416;53.074;8.822;2022-08-02T05:22:44;9.30;;;4.93;;
6757;SDS011;3416;53.074;8.822;2022-08-02T05:25:11;11.70;;;5.70;;
6757;SDS011;3416;53.074;8.822;2022-08-02T05:27:38;11.40;;;5.30;;
6757;SDS011;3416;53.074;8.822;2022-08-02T05:30:05;9.40;;;4.50;;
6757;SDS011;3416;53.074;8.822;2022-08-02T05:32:33;10.23;;;5.40;;
6757;SDS011;3416;53.074;8.822;2022-08-02T05:35:00;6.50;;;4.47;;
6757;SDS011;3416;53.074;8.822;2022-08-02T05:37:27;6.03;;;4.80;;
6757;SDS011;3416;53.074;8.822;2022-08-02T05:39:55;11.10;;;5.50;;
6757;SDS011;3416;53.074;8.822;2022-08-02T05:42:22;7.93;;;4.60;;
6757;SDS011;3416;53.074;8.822;2022-08-02T05:44:49;7.90;;;4.43;;
6757;SDS011;3416;53.074;8.822;2022-08-02T05:47:16;8.17;;;4.97;;
6757;SDS011;3416;53.074;8.822;2022-08-02T05:49:43;8.00;;;4.90;;
6757;SDS011;3416;53.074;8.822;2022-08-02T05:52:13;7.80;;;4.33;;
6757;SDS011;3416;53.074;8.822;2022-08-02T05:54:45;5.53;;;3.80;;
6757;SDS011;3416;53.074;8.822;2022-08-02T05:57:21;7.23;;;4.47;;
6757;SDS011;3416;53.074;8.822;2022-08-02T06:00:06;4.80;;;3.77;;
6757;SDS011;3416;53.074;8.822;2022-08-02T06:05:31;5.93;;;3.50;;
6757;SDS011;3416;53.074;8.822;2022-08-02T06:08:00;8.47;;;5.20;;
6757;SDS011;3416;53.074;8.822;2022-08-02T06:10:28;7.00;;;3.90;;
6757;SDS011;3416;53.074;8.822;2022-08-02T06:13:04;8.60;;;2.90;;
6757;SDS011;3416;53.074;8.822;2022-08-02T06:15:34;6.27;;;3.30;;
6757;SDS011;3416;53.074;8.822;2022-08-02T06:18:02;9.17;;;3.77;;
6757;SDS011;3416;53.074;8.822;2022-08-02T06:20:30;7.63;;;3.30;;
6757;SDS011;3416;53.074;8.822;2022-08-02T06:23:00;7.23;;;3.13;;
6757;SDS011;3416;53.074;8.822;2022-08-02T06:25:28;4.70;;;2.63;;
6757;SDS011;3416;53.074;8.822;2022-08-02T06:27:56;6.27;;;2.27;;
6757;SDS011;3416;53.074;8.822;2022-08-02T06:30:28;5.63;;;2.53;;
6757;SDS011;3416;53.074;8.822;2022-08-02T06:32:56;5.17;;;2.83;;
6757;SDS011;3416;53.074;8.822;2022-08-02T06:35:25;6.47;;;2.67;;
6757;SDS011;3416;53.074;8.822;2022-08-02T06:38:06;10.00;;;3.03;;
6757;SDS011;3416;53.074;8.822;2022-08-02T06:40:37;6.10;;;2.57;;
6757;SDS011;3416;53.074;8.822;2022-08-02T06:43:10;6.40;;;2.73;;
6757;SDS011;3416;53.074;8.822;2022-08-02T06:45:39;8.23;;;3.13;;
6757;SDS011;3416;53.074;8.822;2022-08-02T06:48:06;7.57;;;3.43;;
6757;SDS011;3416;53.074;8.822;2022-08-02T06:50:36;4.40;;;2.43;;
6757;SDS011;3416;53.074;8.822;2022-08-02T06:53:03;4.33;;;2.30;;
6757;SDS011;3416;53.074;8.822;2022-08-02T06:55:31;7.50;;;3.80;;
6757;SDS011;3416;53.074;8.822;2022-08-02T06:57:57;4.60;;;2.40;;
6757;SDS011;3416;53.074;8.822;2022-08-02T07:00:26;5.57;;;2.60;;
6757;SDS011;3416;53.074;8.822;2022-08-02T07:02:54;5.13;;;2.77;;
6757;SDS011;3416;53.074;8.822;2022-08-02T07:05:21;6.03;;;2.50;;
6757;SDS011;3416;53.074;8.822;2022-08-02T07:07:49;7.63;;;3.07;;
6757;SDS011;3416;53.074;8.822;2022-08-02T07:10:16;6.30;;;2.50;;
6757;SDS011;3416;53.074;8.822;2022-08-02T07:12:43;7.10;;;3.20;;
6757;SDS011;3416;53.074;8.822;2022-08-02T07:15:10;8.70;;;2.50;;
6757;SDS011;3416;53.074;8.822;2022-08-02T07:17:37;3.20;;;1.93;;
6757;SDS011;3416;53.074;8.822;2022-08-02T07:20:07;8.77;;;3.57;;
6757;SDS011;3416;53.074;8.822;2022-08-02T07:22:34;8.73;;;3.00;;
6757;SDS011;3416;53.074;8.822;2022-08-02T07:25:01;6.60;;;2.33;;
6757;SDS011;3416;53.074;8.822;2022-08-02T07:27:30;9.63;;;2.50;;
6757;SDS011;3416;53.074;8.822;2022-08-02T07:29:57;6.70;;;2.37;;
6757;SDS011;3416;53.074;8.822;2022-08-02T07:32:24;9.47;;;2.97;;
6757;SDS011;3416;53.074;8.822;2022-08-02T07:34:53;13.43;;;2.57;;
6757;SDS011;3416;53.074;8.822;2022-08-02T07:37:23;4.37;;;2.43;;
6757;SDS011;3416;53.074;8.822;2022-08-02T07:39:50;9.90;;;4.00;;
6757;SDS011;3416;53.074;8.822;2022-08-02T07:42:17;7.33;;;2.80;;
6757;SDS011;3416;53.074;8.822;2022-08-02T07:44:44;7.43;;;2.70;;
6757;SDS011;3416;53.074;8.822;2022-08-02T07:47:11;6.53;;;2.30;;
6757;SDS011;3416;53.074;8.822;2022-08-02T07:49:38;5.27;;;2.53;;
6757;SDS011;3416;53.074;8.822;2022-08-02T07:52:05;10.60;;;2.67;;
6757;SDS011;3416;53.074;8.822;2022-08-02T07:54:34;5.67;;;2.97;;
6757;SDS011;3416;53.074;8.822;2022-08-02T07:57:01;8.03;;;3.20;;
6757;SDS011;3416;53.074;8.822;2022-08-02T07:59:28;8.73;;;2.90;;
6757;SDS011;3416;53.074;8.822;2022-08-02T08:01:55;6.57;;;2.43;;
6757;SDS011;3416;53.074;8.822;2022-08-02T08:04:22;5.10;;;2.00;;
6757;SDS011;3416;53.074;8.822;2022-08-02T08:06:49;11.43;;;3.03;;
6757;SDS011;3416;53.074;8.822;2022-08-02T08:09:18;3.03;;;2.00;;
6757;SDS011;3416;53.074;8.822;2022-08-02T08:11:46;7.07;;;2.47;;
6757;SDS011;3416;53.074;8.822;2022-08-02T08:14:13;6.30;;;2.77;;
6757;SDS011;3416;53.074;8.822;2022-08-02T08:16:41;6.33;;;2.70;;
6757;SDS011;3416;53.074;8.822;2022-08-02T08:19:08;10.73;;;3.30;;
6757;SDS011;3416;53.074;8.822;2022-08-02T08:21:35;8.23;;;2.90;;
6757;SDS011;3416;53.074;8.822;2022-08-02T08:24:02;5.13;;;2.37;;
6757;SDS011;3416;53.074;8.822;2022-08-02T08:26:29;6.13;;;2.67;;
6757;SDS011;3416;53.074;8.822;2022-08-02T08:28:57;8.60;;;2.50;;
6757;SDS011;3416;53.074;8.822;2022-08-02T08:31:26;5.83;;;2.37;;
6757;SDS011;3416;53.074;8.822;2022-08-02T08:33:53;8.53;;;3.10;;
6757;SDS011;3416;53.074;8.822;2022-08-02T08:36:20;9.10;;;2.47;;
6757;SDS011;3416;53.074;8.822;2022-08-02T08:38:48;5.23;;;2.20;;
6757;SDS011;3416;53.074;8.822;2022-08-02T08:41:15;2.80;;;1.80;;
6757;SDS011;3416;53.074;8.822;2022-08-02T08:43:43;7.03;;;2.87;;
6757;SDS011;3416;53.074;8.822;2022-08-02T08:46:16;8.23;;;2.33;;
6757;SDS011;3416;53.074;8.822;2022-08-02T08:48:50;6.40;;;2.63;;
6757;SDS011;3416;53.074;8.822;2022-08-02T08:51:20;3.53;;;2.40;;
6757;SDS011;3416;53.074;8.822;2022-08-02T08:53:48;5.90;;;2.27;;
6757;SDS011;3416;53.074;8.822;2022-08-02T08:56:19;6.03;;;2.67;;
6757;SDS011;3416;53.074;8.822;2022-08-02T08:58:46;5.17;;;1.87;;
6757;SDS011;3416;53.074;8.822;2022-08-02T09:01:15;6.67;;;2.27;;
6757;SDS011;3416;53.074;8.822;2022-08-02T09:03:42;5.10;;;2.40;;
6757;SDS011;3416;53.074;8.822;2022-08-02T09:06:09;7.63;;;2.37;;
6757;SDS011;3416;53.074;8.822;2022-08-02T09:08:37;3.20;;;2.00;;
6757;SDS011;3416;53.074;8.822;2022-08-02T09:11:10;6.10;;;3.47;;
6757;SDS011;3416;53.074;8.822;2022-08-02T09:13:47;5.63;;;2.33;;
6757;SDS011;3416;53.074;8.822;2022-08-02T09:16:27;5.20;;;2.30;;
6757;SDS011;3416;53.074;8.822;2022-08-02T09:18:58;6.77;;;2.10;;
6757;SDS011;3416;53.074;8.822;2022-08-02T09:21:36;5.10;;;2.77;;
6757;SDS011;3416;53.074;8.822;2022-08-02T09:24:12;3.30;;;1.70;;
6757;SDS011;3416;53.074;8.822;2022-08-02T09:26:41;5.53;;;2.10;;
6757;SDS011;3416;53.074;8.822;2022-08-02T09:29:08;3.37;;;1.60;;
6757;SDS011;3416;53.074;8.822;2022-08-02T09:31:37;4.17;;;2.40;;
6757;SDS011;3416;53.074;8.822;2022-08-02T09:34:04;7.90;;;1.90;;
6757;SDS011;3416;53.074;8.822;2022-08-02T09:36:36;4.87;;;1.70;;
6757;SDS011;3416;53.074;8.822;2022-08-02T09:39:04;3.33;;;1.70;;
6757;SDS011;3416;53.074;8.822;2022-08-02T09:41:32;5.33;;;2.23;;
6757;SDS011;3416;53.074;8.822;2022-08-02T09:44:01;5.03;;;1.80;;
6757;SDS011;3416;53.074;8.822;2022-08-02T09:46:30;3.90;;;1.90;;
6757;SDS011;3416;53.074;8.822;2022-08-02T09:49:02;6.47;;;1.67;;
6757;SDS011;3416;53.074;8.822;2022-08-02T09:51:31;3.87;;;1.97;;
6757;SDS011;3416;53.074;8.822;2022-08-02T09:54:00;3.43;;;1.80;;
6757;SDS011;3416;53.074;8.822;2022-08-02T09:56:38;4.10;;;1.80;;
6757;SDS011;3416;53.074;8.822;2022-08-02T09:59:07;7.13;;;2.20;;
6757;SDS011;3416;53.074;8.822;2022-08-02T10:01:35;5.53;;;2.00;;
6757;SDS011;3416;53.074;8.822;2022-08-02T10:04:05;5.50;;;1.70;;
6757;SDS011;3416;53.074;8.822;2022-08-02T10:06:35;2.80;;;1.07;;
6757;SDS011;3416;53.074;8.822;2022-08-02T10:09:02;2.40;;;1.33;;
6757;SDS011;3416;53.074;8.822;2022-08-02T10:11:29;5.20;;;2.03;;
6757;SDS011;3416;53.074;8.822;2022-08-02T10:13:57;5.33;;;2.00;;
6757;SDS011;3416;53.074;8.822;2022-08-02T10:16:24;3.30;;;1.97;;
6757;SDS011;3416;53.074;8.822;2022-08-02T10:18:52;3.57;;;1.67;;
6757;SDS011;3416;53.074;8.822;2022-08-02T10:21:23;3.27;;;1.70;;
6757;SDS011;3416;53.074;8.822;2022-08-02T10:23:56;6.20;;;2.20;;
6757;SDS011;3416;53.074;8.822;2022-08-02T10:26:32;3.53;;;2.00;;
6757;SDS011;3416;53.074;8.822;2022-08-02T10:29:00;4.00;;;1.23;;
6757;SDS011;3416;53.074;8.822;2022-08-02T10:31:30;2.03;;;1.10;;
6757;SDS011;3416;53.074;8.822;2022-08-02T10:34:01;3.70;;;1.80;;
6757;SDS011;3416;53.074;8.822;2022-08-02T10:36:31;4.53;;;1.67;;
6757;SDS011;3416;53.074;8.822;2022-08-02T10:39:00;4.33;;;2.63;;
6757;SDS011;3416;53.074;8.822;2022-08-02T10:41:41;4.33;;;2.10;;
6757;SDS011;3416;53.074;8.822;2022-08-02T10:44:18;5.27;;;1.33;;
6757;SDS011;3416;53.074;8.822;2022-08-02T10:46:52;3.30;;;1.90;;
6757;SDS011;3416;53.074;8.822;2022-08-02T10:49:49;3.20;;;1.20;;
6757;SDS011;3416;53.074;8.822;2022-08-02T10:52:19;3.77;;;1.70;;
6757;SDS011;3416;53.074;8.822;2022-08-02T10:54:48;3.70;;;1.57;;
6757;SDS011;3416;53.074;8.822;2022-08-02T10:57:20;2.70;;;1.90;;
6757;SDS011;3416;53.074;8.822;2022-08-02T10:59:49;2.80;;;1.70;;
6757;SDS011;3416;53.074;8.822;2022-08-02T11:02:37;2.30;;;1.50;;
6757;SDS011;3416;53.074;8.822;2022-08-02T11:05:09;2.60;;;2.00;;
6757;SDS011;3416;53.074;8.822;2022-08-02T11:07:41;3.47;;;1.90;;
6757;SDS011;3416;53.074;8.822;2022-08-02T11:13:00;7.97;;;2.10;;
6757;SDS011;3416;53.074;8.822;2022-08-02T11:15:29;6.03;;;2.43;;
6757;SDS011;3416;53.074;8.822;2022-08-02T11:17:56;3.63;;;1.83;;
6757;SDS011;3416;53.074;8.822;2022-08-02T11:20:24;5.43;;;1.83;;
6757;SDS011;3416;53.074;8.822;2022-08-02T11:22:54;6.57;;;2.33;;
6757;SDS011;3416;53.074;8.822;2022-08-02T11:25:41;4.00;;;1.60;;
6757;SDS011;3416;53.074;8.822;2022-08-02T11:28:09;7.17;;;1.70;;
6757;SDS011;3416;53.074;8.822;2022-08-02T11:30:36;4.07;;;1.70;;
6757;SDS011;3416;53.074;8.822;2022-08-02T11:33:04;2.77;;;1.80;;
6757;SDS011;3416;53.074;8.822;2022-08-02T11:35:32;4.60;;;2.07;;
6757;SDS011;3416;53.074;8.822;2022-08-02T11:38:14;4.03;;;1.53;;
6757;SDS011;3416;53.074;8.822;2022-08-02T11:40:43;6.30;;;1.70;;
6757;SDS011;3416;53.074;8.822;2022-08-02T11:43:14;6.13;;;1.60;;
6757;SDS011;3416;53.074;8.822;2022-08-02T11:45:45;5.53;;;2.20;;
6757;SDS011;3416;53.074;8.822;2022-08-02T11:48:12;2.80;;;1.37;;
6757;SDS011;3416;53.074;8.822;2022-08-02T11:50:40;4.13;;;1.50;;
6757;SDS011;3416;53.074;8.822;2022-08-02T11:53:15;3.20;;;1.60;;
6757;SDS011;3416;53.074;8.822;2022-08-02T11:55:41;2.67;;;1.87;;
6757;SDS011;3416;53.074;8.822;2022-08-02T11:58:08;3.80;;;1.60;;
6757;SDS011;3416;53.074;8.822;2022-08-02T12:00:37;3.00;;;2.13;;
6757;SDS011;3416;53.074;8.822;2022-08-02T12:03:05;3.27;;;2.17;;
6757;SDS011;3416;53.074;8.822;2022-08-02T12:05:33;6.57;;;1.97;;
6757;SDS011;3416;53.074;8.822;2022-08-02T12:08:01;2.10;;;1.50;;
6757;SDS011;3416;53.074;8.822;2022-08-02T12:10:33;4.33;;;1.87;;
6757;SDS011;3416;53.074;8.822;2022-08-02T12:13:00;3.87;;;2.20;;
6757;SDS011;3416;53.074;8.822;2022-08-02T12:15:28;3.10;;;1.90;;
6757;SDS011;3416;53.074;8.822;2022-08-02T12:17:56;3.80;;;3.00;;
6757;SDS011;3416;53.074;8.822;2022-08-02T12:20:43;3.73;;;1.97;;
6757;SDS011;3416;53.074;8.822;2022-08-02T12:23:11;2.50;;;1.93;;
6757;SDS011;3416;53.074;8.822;2022-08-02T12:25:40;3.80;;;2.43;;
6757;SDS011;3416;53.074;8.822;2022-08-02T12:28:13;4.63;;;2.17;;
6757;SDS011;3416;53.074;8.822;2022-08-02T12:30:48;6.33;;;2.03;;
6757;SDS011;3416;53.074;8.822;2022-08-02T12:33:17;7.23;;;2.40;;
6757;SDS011;3416;53.074;8.822;2022-08-02T12:35:44;5.40;;;2.47;;
6757;SDS011;3416;53.074;8.822;2022-08-02T12:38:11;3.30;;;2.00;;
6757;SDS011;3416;53.074;8.822;2022-08-02T12:40:39;3.43;;;2.10;;
6757;SDS011;3416;53.074;8.822;2022-08-02T12:43:07;5.50;;;2.87;;
6757;SDS011;3416;53.074;8.822;2022-08-02T12:45:47;4.83;;;2.20;;
6757;SDS011;3416;53.074;8.822;2022-08-02T12:48:28;4.43;;;2.33;;
6757;SDS011;3416;53.074;8.822;2022-08-02T12:50:56;3.20;;;1.90;;
6757;SDS011;3416;53.074;8.822;2022-08-02T12:53:25;2.87;;;2.20;;
6757;SDS011;3416;53.074;8.822;2022-08-02T12:55:59;5.60;;;2.73;;
6757;SDS011;3416;53.074;8.822;2022-08-02T12:58:26;5.03;;;2.47;;
6757;SDS011;3416;53.074;8.822;2022-08-02T13:00:54;4.77;;;2.30;;
6757;SDS011;3416;53.074;8.822;2022-08-02T13:03:22;7.03;;;2.60;;
6757;SDS011;3416;53.074;8.822;2022-08-02T13:05:50;3.50;;;2.73;;
6757;SDS011;3416;53.074;8.822;2022-08-02T13:08:17;8.80;;;2.73;;
6757;SDS011;3416;53.074;8.822;2022-08-02T13:10:44;5.20;;;3.67;;
6757;SDS011;3416;53.074;8.822;2022-08-02T13:13:12;7.07;;;3.07;;
6757;SDS011;3416;53.074;8.822;2022-08-02T13:15:39;5.27;;;2.70;;
6757;SDS011;3416;53.074;8.822;2022-08-02T13:18:06;6.23;;;3.00;;
6757;SDS011;3416;53.074;8.822;2022-08-02T13:20:35;5.13;;;2.90;;
6757;SDS011;3416;53.074;8.822;2022-08-02T13:23:02;9.40;;;3.70;;
6757;SDS011;3416;53.074;8.822;2022-08-02T13:25:29;2.73;;;2.37;;
6757;SDS011;3416;53.074;8.822;2022-08-02T13:27:56;6.17;;;2.80;;
6757;SDS011;3416;53.074;8.822;2022-08-02T13:30:24;3.70;;;2.90;;
6757;SDS011;3416;53.074;8.822;2022-08-02T13:32:51;4.33;;;2.50;;
6757;SDS011;3416;53.074;8.822;2022-08-02T13:35:18;5.47;;;3.33;;
6757;SDS011;3416;53.074;8.822;2022-08-02T13:37:45;5.50;;;3.13;;
6757;SDS011;3416;53.074;8.822;2022-08-02T13:40:13;4.37;;;2.80;;
6757;SDS011;3416;53.074;8.822;2022-08-02T13:42:40;4.20;;;2.50;;
6757;SDS011;3416;53.074;8.822;2022-08-02T13:45:07;10.37;;;2.57;;
6757;SDS011;3416;53.074;8.822;2022-08-02T13:47:37;5.90;;;2.40;;
6757;SDS011;3416;53.074;8.822;2022-08-02T13:50:05;6.63;;;2.50;;
6757;SDS011;3416;53.074;8.822;2022-08-02T13:52:33;3.40;;;2.70;;
6757;SDS011;3416;53.074;8.822;2022-08-02T13:55:00;5.10;;;3.07;;
6757;SDS011;3416;53.074;8.822;2022-08-02T13:57:28;5.53;;;3.40;;
6757;SDS011;3416;53.074;8.822;2022-08-02T13:59:55;5.70;;;2.00;;
6757;SDS011;3416;53.074;8.822;2022-08-02T14:02:22;5.47;;;2.37;;
6757;SDS011;3416;53.074;8.822;2022-08-02T14:04:50;4.33;;;2.67;;
6757;SDS011;3416;53.074;8.822;2022-08-02T14:07:17;4.93;;;2.47;;
6757;SDS011;3416;53.074;8.822;2022-08-02T14:09:45;5.00;;;3.17;;
6757;SDS011;3416;53.074;8.822;2022-08-02T14:12:12;3.33;;;2.77;;
6757;SDS011;3416;53.074;8.822;2022-08-02T14:14:40;2.90;;;2.37;;
6757;SDS011;3416;53.074;8.822;2022-08-02T14:17:10;2.37;;;2.17;;
6757;SDS011;3416;53.074;8.822;2022-08-02T14:19:37;4.53;;;2.70;;
6757;SDS011;3416;53.074;8.822;2022-08-02T14:22:06;3.20;;;2.30;;
6757;SDS011;3416;53.074;8.822;2022-08-02T14:24:33;6.50;;;2.93;;
6757;SDS011;3416;53.074;8.822;2022-08-02T14:27:00;3.17;;;2.47;;
6757;SDS011;3416;53.074;8.822;2022-08-02T14:29:27;2.83;;;2.30;;
6757;SDS011;3416;53.074;8.822;2022-08-02T14:31:54;3.80;;;2.33;;
6757;SDS011;3416;53.074;8.822;2022-08-02T14:34:21;3.20;;;2.40;;
6757;SDS011;3416;53.074;8.822;2022-08-02T14:36:48;2.90;;;2.50;;
6757;SDS011;3416;53.074;8.822;2022-08-02T14:39:16;6.30;;;2.80;;
6757;SDS011;3416;53.074;8.822;2022-08-02T14:41:43;7.20;;;2.10;;
6757;SDS011;3416;53.074;8.822;2022-08-02T14:44:10;4.80;;;2.67;;
6757;SDS011;3416;53.074;8.822;2022-08-02T14:46:38;2.90;;;2.27;;
6757;SDS011;3416;53.074;8.822;2022-08-02T14:49:06;2.53;;;2.33;;
6757;SDS011;3416;53.074;8.822;2022-08-02T14:51:34;3.03;;;2.23;;
6757;SDS011;3416;53.074;8.822;2022-08-02T14:54:03;3.73;;;2.10;;
6757;SDS011;3416;53.074;8.822;2022-08-02T14:56:32;5.00;;;2.40;;
6757;SDS011;3416;53.074;8.822;2022-08-02T14:58:59;3.70;;;2.60;;
6757;SDS011;3416;53.074;8.822;2022-08-02T15:01:27;4.13;;;2.70;;
6757;SDS011;3416;53.074;8.822;2022-08-02T15:03:55;4.27;;;2.73;;
6757;SDS011;3416;53.074;8.822;2022-08-02T15:06:22;4.03;;;2.53;;
6757;SDS011;3416;53.074;8.822;2022-08-02T15:08:52;4.20;;;3.47;;
6757;SDS011;3416;53.074;8.822;2022-08-02T15:11:19;4.67;;;3.13;;
6757;SDS011;3416;53.074;8.822;2022-08-02T15:13:47;3.90;;;2.80;;
6757;SDS011;3416;53.074;8.822;2022-08-02T15:16:14;2.50;;;2.30;;
6757;SDS011;3416;53.074;8.822;2022-08-02T15:18:42;5.27;;;3.30;;
6757;SDS011;3416;53.074;8.822;2022-08-02T15:21:09;5.00;;;4.40;;
6757;SDS011;3416;53.074;8.822;2022-08-02T15:23:36;4.37;;;3.70;;
6757;SDS011;3416;53.074;8.822;2022-08-02T15:26:03;4.33;;;3.40;;
6757;SDS011;3416;53.074;8.822;2022-08-02T15:28:31;3.40;;;3.10;;
6757;SDS011;3416;53.074;8.822;2022-08-02T15:30:59;4.13;;;2.97;;
6757;SDS011;3416;53.074;8.822;2022-08-02T15:33:26;4.43;;;3.90;;